Decoded Metar for CZVL (Edmonton / Villeneuve in Canada) (IATA:N/A) | Meteo·Mobile Aviation Weather
aviador You're here:

CZVL Decoded Metar

Edmonton / Villeneuve in Canada
Report Time2018-12-19 15:00:00
UTC Time2018-12-19 15:19:20
Flight Rules vfr VFR
WindCalm
Visibility9999 m
Phenomena:N/A
Clouds:N/A
Expected CloudBase > 800 ft AGL from Temp-Dew spread
CeilingNone
Temp-6°C
Dew Point-8°C (86% RH)
AAT-8.9°C
QNH1005 hPa
Raw Report
METAR CZVL 191500Z AUTO 00000KT 9SM CLR M06/M08 A2968 RMK SLP088=

Extra information for CZVL:More info

Metar Taf Metar & Taf Last 4 Metars F.Rules Stats Wind Profile Meteogram Temp Stats Metar ALERT Operation Metar Decoded Social comments